Time,TemperatureF,DewpointF,PressureIn,WindDirection,WindDirectionDegrees,WindSpeedMPH,WindSpeedGustMPH,Humidity,HourlyPrecipIn,Conditions,Clouds,dailyrainin,SolarRadiationWatts/m^2,SoftwareType,DateUTC
2013-09-14 00:00:00,77.8,74.6,29.80,East,90,0.0,2.0,90,0.00,,,0.00,0.00,VWS V14.00,2013-09-14 05:00:00,
2013-09-14 00:15:00,77.8,74.6,29.80,East,90,0.0,2.0,90,0.00,,,0.00,0.00,VWS V14.00,2013-09-14 05:15:00,
2013-09-14 00:30:00,77.7,74.5,29.80,East,90,0.0,3.0,90,0.00,,,0.00,0.00,VWS V14.00,2013-09-14 05:30:00,
2013-09-14 00:45:00,77.4,74.2,29.80,East,90,0.0,0.0,90,0.00,,,0.00,0.00,VWS V14.00,2013-09-14 05:45:00,
2013-09-14 01:00:00,77.3,74.1,29.79,East,90,0.0,3.0,90,0.00,,,0.00,0.00,VWS V14.00,2013-09-14 06:00:00,
2013-09-14 01:15:00,77.1,73.9,29.79,East,90,0.0,2.0,90,0.00,,,0.00,0.00,VWS V14.00,2013-09-14 06:15:00,
2013-09-14 01:30:00,77.0,74.2,29.78,East,90,0.0,2.0,91,0.00,,,0.00,0.00,VWS V14.00,2013-09-14 06:30:00,
2013-09-14 01:45:00,76.7,73.9,29.79,East,90,0.0,1.0,91,0.00,,,0.00,0.00,VWS V14.00,2013-09-14 06:45:00,
2013-09-14 02:00:00,76.7,74.2,29.78,East,90,0.0,1.0,92,0.00,,,0.00,0.00,VWS V14.00,2013-09-14 07:00:00,
2013-09-14 02:15:00,76.5,74.0,29.78,East,90,0.0,0.0,92,0.00,,,0.00,0.00,VWS V14.00,2013-09-14 07:15:00,
2013-09-14 02:30:00,76.4,73.9,29.78,East,90,0.0,0.0,92,0.00,,,0.00,0.00,VWS V14.00,2013-09-14 07:30:00,
2013-09-14 02:45:00,76.3,73.8,29.78,East,90,0.0,0.0,92,0.00,,,0.00,0.00,VWS V14.00,2013-09-14 07:45:00,
2013-09-14 03:00:00,76.4,74.2,29.78,East,90,0.0,1.0,93,0.00,,,0.00,0.00,VWS V14.00,2013-09-14 08:00:00,
2013-09-14 03:15:00,76.6,74.4,29.78,East,90,0.0,0.0,93,0.00,,,0.00,0.00,VWS V14.00,2013-09-14 08:15:00,
2013-09-14 03:30:00,76.5,74.3,29.78,East,90,0.0,0.0,93,0.00,,,0.00,0.00,VWS V14.00,2013-09-14 08:30:00,
2013-09-14 03:45:00,76.4,74.2,29.77,East,90,0.0,1.0,93,0.00,,,0.00,0.00,VWS V14.00,2013-09-14 08:45:00,
2013-09-14 04:00:00,76.3,74.1,29.77,East,90,0.0,0.0,93,0.00,,,0.00,0.00,VWS V14.00,2013-09-14 09:00:00,
2013-09-14 04:15:00,76.3,74.1,29.77,East,90,0.0,0.0,93,0.00,,,0.00,0.00,VWS V14.00,2013-09-14 09:15:00,
2013-09-14 04:30:00,76.5,74.3,29.78,East,90,0.0,1.0,93,0.00,,,0.00,0.00,VWS V14.00,2013-09-14 09:30:00,
2013-09-14 04:45:00,76.5,74.3,29.77,East,90,0.0,1.0,93,0.00,,,0.00,0.00,VWS V14.00,2013-09-14 09:45:00,
2013-09-14 05:00:00,76.2,74.0,29.78,East,90,0.0,1.0,93,0.00,,,0.00,0.00,VWS V14.00,2013-09-14 10:00:00,
2013-09-14 05:15:00,75.8,73.6,29.78,East,90,0.0,3.0,93,0.00,,,0.00,0.00,VWS V14.00,2013-09-14 10:15:00,
2013-09-14 05:30:00,75.4,73.2,29.78,East,90,0.0,0.0,93,0.00,,,0.00,0.00,VWS V14.00,2013-09-14 10:30:00,
2013-09-14 05:45:00,75.0,72.8,29.79,East,95,0.0,0.0,93,0.00,,,0.00,0.00,VWS V14.00,2013-09-14 10:45:00,
2013-09-14 06:00:00,75.0,73.2,29.78,ENE,68,1.0,3.0,94,0.00,,,0.00,0.00,VWS V14.00,2013-09-14 11:00:00,
2013-09-14 06:15:00,75.0,73.2,29.78,ENE,68,0.0,1.0,94,0.00,,,0.00,0.00,VWS V14.00,2013-09-14 11:15:00,
2013-09-14 06:30:00,75.0,73.2,29.79,ENE,68,0.0,2.0,94,0.00,,,0.00,0.00,VWS V14.00,2013-09-14 11:30:00,
2013-09-14 06:45:00,74.9,73.1,29.79,ENE,68,0.0,3.0,94,0.00,,,0.00,0.00,VWS V14.00,2013-09-14 11:45:00,
2013-09-14 07:00:00,75.1,73.3,29.80,ENE,68,1.0,3.0,94,0.00,,,0.00,0.00,VWS V14.00,2013-09-14 12:00:00,
2013-09-14 07:15:00,75.0,73.2,29.80,NNE,22,1.0,3.0,94,0.00,,,0.00,1.00,VWS V14.00,2013-09-14 12:15:00,
2013-09-14 07:30:00,75.3,73.5,29.81,NNE,22,1.0,6.0,94,0.00,,,0.00,14.00,VWS V14.00,2013-09-14 12:30:00,
2013-09-14 07:45:00,75.9,74.1,29.81,North,0,2.0,7.0,94,0.00,,,0.00,24.00,VWS V14.00,2013-09-14 12:45:00,
2013-09-14 08:00:00,76.8,74.6,29.82,NNE,22,1.0,5.0,93,0.00,,,0.00,50.00,VWS V14.00,2013-09-14 13:00:00,
2013-09-14 08:15:00,78.3,75.8,29.82,NNE,22,1.0,5.0,92,0.00,,,0.00,160.00,VWS V14.00,2013-09-14 13:15:00,
2013-09-14 08:30:00,79.3,75.8,29.83,NNE,22,3.0,9.0,89,0.00,,,0.00,224.00,VWS V14.00,2013-09-14 13:30:00,
2013-09-14 08:45:00,80.4,76.2,29.83,NNE,22,3.0,7.0,87,0.00,,,0.00,290.00,VWS V14.00,2013-09-14 13:45:00,
2013-09-14 09:00:00,81.5,76.9,29.83,North,0,3.0,7.0,86,0.00,,,0.00,343.00,VWS V14.00,2013-09-14 14:00:00,
2013-09-14 09:15:00,82.3,77.0,29.84,North,0,3.0,8.0,84,0.00,,,0.00,393.00,VWS V14.00,2013-09-14 14:15:00,
2013-09-14 09:30:00,83.3,77.6,29.84,NE,45,2.0,6.0,83,0.00,,,0.00,446.00,VWS V14.00,2013-09-14 14:30:00,
2013-09-14 09:45:00,84.4,77.9,29.84,NE,45,3.0,6.0,81,0.00,,,0.00,498.00,VWS V14.00,2013-09-14 14:45:00,
2013-09-14 10:00:00,85.3,78.4,29.84,NNE,22,3.0,10.0,80,0.00,,,0.00,549.00,VWS V14.00,2013-09-14 15:00:00,
2013-09-14 10:15:00,86.3,77.4,29.84,NNE,22,3.0,7.0,75,0.00,,,0.00,608.00,VWS V14.00,2013-09-14 15:15:00,
2013-09-14 10:30:00,86.8,77.5,29.84,NE,45,3.0,10.0,74,0.00,,,0.00,681.00,VWS V14.00,2013-09-14 15:30:00,
2013-09-14 10:45:00,87.6,77.5,29.84,NE,45,3.0,11.0,72,0.00,,,0.00,665.00,VWS V14.00,2013-09-14 15:45:00,
2013-09-14 11:00:00,88.1,76.7,29.84,NE,45,4.0,10.0,69,0.00,,,0.00,749.00,VWS V14.00,2013-09-14 16:00:00,
2013-09-14 11:15:00,87.8,76.8,29.84,ENE,68,3.0,11.0,70,0.00,,,0.00,671.00,VWS V14.00,2013-09-14 16:15:00,
2013-09-14 11:30:00,89.1,77.2,29.84,East,90,4.0,10.0,68,0.00,,,0.00,909.00,VWS V14.00,2013-09-14 16:30:00,
2013-09-14 11:45:00,89.8,75.1,29.84,East,90,3.0,11.0,62,0.00,,,0.00,882.00,VWS V14.00,2013-09-14 16:45:00,
2013-09-14 12:00:00,89.8,75.5,29.83,East,90,4.0,13.0,63,0.00,,,0.00,902.00,VWS V14.00,2013-09-14 17:00:00,
2013-09-14 12:15:00,90.8,76.0,29.84,East,90,3.0,9.0,62,0.00,,,0.00,990.00,VWS V14.00,2013-09-14 17:15:00,
2013-09-14 12:30:00,90.5,75.7,29.83,East,90,4.0,11.0,62,0.00,,,0.00,1019.00,VWS V14.00,2013-09-14 17:30:00,
2013-09-14 12:45:00,90.6,75.3,29.83,East,90,4.0,11.0,61,0.00,,,0.00,982.00,VWS V14.00,2013-09-14 17:45:00,
2013-09-14 13:00:00,90.8,76.0,29.83,East,90,3.0,10.0,62,0.00,,,0.00,859.00,VWS V14.00,2013-09-14 18:00:00,
2013-09-14 13:15:00,91.0,76.2,29.83,East,90,3.0,10.0,62,0.00,,,0.00,944.00,VWS V14.00,2013-09-14 18:15:00,
2013-09-14 13:30:00,91.3,75.5,29.82,East,90,4.0,10.0,60,0.00,,,0.00,992.00,VWS V14.00,2013-09-14 18:30:00,
2013-09-14 13:45:00,91.0,76.2,29.82,East,90,4.0,12.0,62,0.00,,,0.00,938.00,VWS V14.00,2013-09-14 18:45:00,
2013-09-14 14:00:00,90.6,76.3,29.81,ESE,112,5.0,14.0,63,0.00,,,0.00,877.00,VWS V14.00,2013-09-14 19:00:00,
2013-09-14 14:15:00,90.4,75.6,29.81,East,90,6.0,14.0,62,0.00,,,0.00,910.00,VWS V14.00,2013-09-14 19:15:00,
2013-09-14 14:30:00,90.3,75.0,29.81,East,90,6.0,12.0,61,0.00,,,0.00,865.00,VWS V14.00,2013-09-14 19:30:00,
2013-09-14 15:01:00,90.3,76.0,29.80,SE,127,4.0,13.0,63,0.00,,,0.00,793.00,VWS V14.00,2013-09-14 20:01:00,
2013-09-14 15:15:00,90.2,74.9,29.79,ESE,112,5.0,14.0,61,0.00,,,0.00,777.00,VWS V14.00,2013-09-14 20:15:00,
2013-09-14 15:30:00,89.5,74.8,29.79,ESE,112,6.0,14.0,62,0.00,,,0.00,742.00,VWS V14.00,2013-09-14 20:30:00,
2013-09-14 15:45:00,89.6,75.8,29.78,ESE,112,5.0,14.0,64,0.00,,,0.00,705.00,VWS V14.00,2013-09-14 20:45:00,
2013-09-14 16:00:00,89.7,76.8,29.78,ESE,112,5.0,14.0,66,0.00,,,0.00,666.00,VWS V14.00,2013-09-14 21:00:00,
2013-09-14 16:15:00,89.2,76.4,29.78,ESE,112,6.0,13.0,66,0.00,,,0.00,625.00,VWS V14.00,2013-09-14 21:15:00,
2013-09-14 16:30:00,88.8,75.5,29.78,East,90,6.0,13.0,65,0.00,,,0.00,560.00,VWS V14.00,2013-09-14 21:30:00,
2013-09-14 16:45:00,88.6,75.3,29.78,East,90,6.0,16.0,65,0.00,,,0.00,530.00,VWS V14.00,2013-09-14 21:45:00,
2013-09-14 17:00:00,88.3,74.1,29.78,East,90,6.0,15.0,63,0.00,,,0.00,489.00,VWS V14.00,2013-09-14 22:00:00,
2013-09-14 17:15:00,88.0,74.8,29.78,ESE,112,6.0,14.0,65,0.00,,,0.00,427.00,VWS V14.00,2013-09-14 22:15:00,
2013-09-14 17:30:00,87.6,74.4,29.78,East,90,6.0,14.0,65,0.00,,,0.00,374.00,VWS V14.00,2013-09-14 22:30:00,
2013-09-14 17:45:00,87.7,75.8,29.78,East,90,5.0,12.0,68,0.00,,,0.00,342.00,VWS V14.00,2013-09-14 22:45:00,
2013-09-14 18:00:00,87.2,76.2,29.79,ESE,112,5.0,11.0,70,0.00,,,0.00,275.00,VWS V14.00,2013-09-14 23:00:00,
2013-09-14 18:15:00,86.9,75.5,29.79,East,90,4.0,13.0,69,0.00,,,0.00,211.00,VWS V14.00,2013-09-14 23:15:00,
2013-09-14 18:30:00,86.4,75.5,29.79,East,90,4.0,11.0,70,0.00,,,0.00,157.00,VWS V14.00,2013-09-14 23:30:00,
2013-09-14 18:45:00,85.6,75.1,29.80,East,90,5.0,12.0,71,0.00,,,0.00,65.00,VWS V14.00,2013-09-14 23:45:00,
2013-09-14 19:00:00,85.1,75.5,29.80,East,90,4.0,13.0,73,0.00,,,0.00,42.00,VWS V14.00,2013-09-15 00:00:00,
2013-09-14 19:15:00,84.6,75.8,29.80,ESE,112,5.0,13.0,75,0.00,,,0.00,23.00,VWS V14.00,2013-09-15 00:15:00,
2013-09-14 19:30:00,84.1,75.7,29.81,East,90,5.0,11.0,76,0.00,,,0.00,7.00,VWS V14.00,2013-09-15 00:30:00,
2013-09-14 19:45:00,83.8,74.6,29.81,ESE,112,5.0,12.0,74,0.00,,,0.00,0.00,VWS V14.00,2013-09-15 00:45:00,
2013-09-14 20:00:00,83.3,74.9,29.81,East,90,3.0,7.0,76,0.00,,,0.00,0.00,VWS V14.00,2013-09-15 01:00:00,
2013-09-14 20:15:00,83.1,74.8,29.81,East,90,3.0,11.0,76,0.00,,,0.00,0.00,VWS V14.00,2013-09-15 01:15:00,
2013-09-14 20:30:00,83.0,75.1,29.82,East,90,3.0,11.0,77,0.00,,,0.00,0.00,VWS V14.00,2013-09-15 01:30:00,
2013-09-14 20:45:00,82.9,74.6,29.82,East,90,4.0,9.0,76,0.00,,,0.00,0.00,VWS V14.00,2013-09-15 01:45:00,
2013-09-14 21:00:00,82.7,74.8,29.83,East,90,3.0,8.0,77,0.00,,,0.00,0.00,VWS V14.00,2013-09-15 02:00:00,
2013-09-14 21:15:00,82.5,74.9,29.83,East,90,2.0,9.0,78,0.00,,,0.00,0.00,VWS V14.00,2013-09-15 02:15:00,
2013-09-14 21:30:00,82.2,75.0,29.83,East,90,2.0,6.0,79,0.00,,,0.00,0.00,VWS V14.00,2013-09-15 02:30:00,
2013-09-14 21:45:00,82.1,75.3,29.84,East,90,2.0,6.0,80,0.00,,,0.00,0.00,VWS V14.00,2013-09-15 02:45:00,
2013-09-14 22:00:00,81.9,75.1,29.84,East,90,2.0,6.0,80,0.00,,,0.00,0.00,VWS V14.00,2013-09-15 03:00:00,
2013-09-14 22:15:00,81.8,75.4,29.83,East,90,1.0,5.0,81,0.00,,,0.00,0.00,VWS V14.00,2013-09-15 03:15:00,
2013-09-14 22:30:00,81.7,75.3,29.83,East,90,2.0,6.0,81,0.00,,,0.00,0.00,VWS V14.00,2013-09-15 03:30:00,
2013-09-14 22:45:00,81.5,75.5,29.83,ESE,112,1.0,5.0,82,0.00,,,0.00,0.00,VWS V14.00,2013-09-15 03:45:00,
2013-09-14 23:00:00,81.2,75.6,29.84,ESE,112,0.0,3.0,83,0.00,,,0.00,0.00,VWS V14.00,2013-09-15 04:00:00,
2013-09-14 23:15:00,80.7,75.4,29.84,ESE,112,0.0,2.0,84,0.00,,,0.00,0.00,VWS V14.00,2013-09-15 04:15:00,
2013-09-14 23:30:00,80.1,75.2,29.84,ESE,112,0.0,3.0,85,0.00,,,0.00,0.00,VWS V14.00,2013-09-15 04:30:00,
2013-09-14 23:45:00,80.0,75.4,29.84,East,90,1.0,4.0,86,0.00,,,0.00,0.00,VWS V14.00,2013-09-15 04:45:00,